sensor_id;sensor_type;location;lat;lon;timestamp;pressure;altitude;pressure_sealevel;temperature;humidity
60920;BME280;59039;52.108;19.942;2023-07-08T00:01:11;101218.79;;;17.85;59.39
60920;BME280;59039;52.108;19.942;2023-07-08T00:03:37;101217.98;;;17.81;59.53
60920;BME280;59039;52.108;19.942;2023-07-08T00:06:02;101216.91;;;17.78;59.35
60920;BME280;59039;52.108;19.942;2023-07-08T00:08:28;101218.36;;;17.73;59.61
60920;BME280;59039;52.108;19.942;2023-07-08T00:10:53;101221.89;;;17.68;59.83
60920;BME280;59039;52.108;19.942;2023-07-08T00:13:19;101221.96;;;17.63;60.00
60920;BME280;59039;52.108;19.942;2023-07-08T00:15:44;101215.70;;;17.59;60.04
60920;BME280;59039;52.108;19.942;2023-07-08T00:18:15;101217.79;;;17.55;60.59
60920;BME280;59039;52.108;19.942;2023-07-08T00:20:46;101218.35;;;17.51;60.97
60920;BME280;59039;52.108;19.942;2023-07-08T00:23:11;101218.95;;;17.48;60.96
60920;BME280;59039;52.108;19.942;2023-07-08T00:25:37;101219.95;;;17.44;60.95
60920;BME280;59039;52.108;19.942;2023-07-08T00:28:12;101219.34;;;17.42;61.04
60920;BME280;59039;52.108;19.942;2023-07-08T00:30:38;101218.16;;;17.39;61.32
60920;BME280;59039;52.108;19.942;2023-07-08T00:33:05;101214.35;;;17.37;60.54
60920;BME280;59039;52.108;19.942;2023-07-08T00:35:41;101215.56;;;17.35;60.82
60920;BME280;59039;52.108;19.942;2023-07-08T00:38:14;101216.82;;;17.31;60.28
60920;BME280;59039;52.108;19.942;2023-07-08T00:40:49;101223.54;;;17.26;60.26
60920;BME280;59039;52.108;19.942;2023-07-08T00:43:16;101227.16;;;17.19;61.28
60920;BME280;59039;52.108;19.942;2023-07-08T00:45:47;101231.14;;;17.14;61.63
60920;BME280;59039;52.108;19.942;2023-07-08T00:48:25;101231.31;;;17.09;62.39
60920;BME280;59039;52.108;19.942;2023-07-08T00:50:53;101229.58;;;17.05;61.91
60920;BME280;59039;52.108;19.942;2023-07-08T00:53:22;101224.41;;;17.01;61.61
60920;BME280;59039;52.108;19.942;2023-07-08T00:55:47;101226.38;;;16.97;61.82
60920;BME280;59039;52.108;19.942;2023-07-08T00:58:15;101223.13;;;16.91;61.27
60920;BME280;59039;52.108;19.942;2023-07-08T01:00:41;101226.06;;;16.87;61.64
60920;BME280;59039;52.108;19.942;2023-07-08T01:03:06;101228.20;;;16.82;62.13
60920;BME280;59039;52.108;19.942;2023-07-08T01:05:32;101226.31;;;16.78;62.44
60920;BME280;59039;52.108;19.942;2023-07-08T01:07:59;101228.13;;;16.73;62.07
60920;BME280;59039;52.108;19.942;2023-07-08T01:10:34;101225.12;;;16.69;61.51
60920;BME280;59039;52.108;19.942;2023-07-08T01:13:04;101227.77;;;16.65;62.49
60920;BME280;59039;52.108;19.942;2023-07-08T01:15:34;101224.63;;;16.60;62.74
60920;BME280;59039;52.108;19.942;2023-07-08T01:18:02;101222.84;;;16.57;63.63
60920;BME280;59039;52.108;19.942;2023-07-08T01:20:27;101226.02;;;16.53;64.09
60920;BME280;59039;52.108;19.942;2023-07-08T01:22:52;101228.15;;;16.49;63.94
60920;BME280;59039;52.108;19.942;2023-07-08T01:25:18;101227.33;;;16.45;63.20
60920;BME280;59039;52.108;19.942;2023-07-08T01:27:48;101230.73;;;16.42;62.84
60920;BME280;59039;52.108;19.942;2023-07-08T01:30:15;101228.74;;;16.40;62.90
60920;BME280;59039;52.108;19.942;2023-07-08T01:32:48;101226.20;;;16.38;64.17
60920;BME280;59039;52.108;19.942;2023-07-08T01:35:15;101226.45;;;16.36;64.23
60920;BME280;59039;52.108;19.942;2023-07-08T01:38:08;101223.02;;;16.34;63.77
60920;BME280;59039;52.108;19.942;2023-07-08T01:40:37;101223.58;;;16.31;63.87
60920;BME280;59039;52.108;19.942;2023-07-08T01:43:04;101221.63;;;16.27;64.27
60920;BME280;59039;52.108;19.942;2023-07-08T01:45:37;101220.64;;;16.25;63.97
60920;BME280;59039;52.108;19.942;2023-07-08T01:48:05;101219.73;;;16.23;64.00
60920;BME280;59039;52.108;19.942;2023-07-08T01:50:35;101221.17;;;16.21;63.16
60920;BME280;59039;52.108;19.942;2023-07-08T01:53:08;101217.67;;;16.20;63.76
60920;BME280;59039;52.108;19.942;2023-07-08T01:55:34;101216.92;;;16.17;62.98
60920;BME280;59039;52.108;19.942;2023-07-08T01:57:59;101216.00;;;16.14;63.43
60920;BME280;59039;52.108;19.942;2023-07-08T02:00:24;101213.44;;;16.10;63.68
60920;BME280;59039;52.108;19.942;2023-07-08T02:02:50;101214.30;;;16.07;64.54
60920;BME280;59039;52.108;19.942;2023-07-08T02:05:16;101209.42;;;16.04;64.41
60920;BME280;59039;52.108;19.942;2023-07-08T02:07:41;101214.22;;;16.02;64.25
60920;BME280;59039;52.108;19.942;2023-07-08T02:10:07;101215.80;;;15.99;64.82
60920;BME280;59039;52.108;19.942;2023-07-08T02:12:32;101212.85;;;15.96;65.19
60920;BME280;59039;52.108;19.942;2023-07-08T02:15:01;101214.63;;;15.93;64.94
60920;BME280;59039;52.108;19.942;2023-07-08T02:17:27;101212.60;;;15.90;65.70
60920;BME280;59039;52.108;19.942;2023-07-08T02:19:52;101213.46;;;15.87;64.57
60920;BME280;59039;52.108;19.942;2023-07-08T02:22:17;101211.43;;;15.84;65.43
60920;BME280;59039;52.108;19.942;2023-07-08T02:24:42;101209.86;;;15.80;65.21
60920;BME280;59039;52.108;19.942;2023-07-08T02:27:07;101205.98;;;15.76;65.73
60920;BME280;59039;52.108;19.942;2023-07-08T02:29:33;101204.54;;;15.72;65.08
60920;BME280;59039;52.108;19.942;2023-07-08T02:31:58;101197.35;;;15.71;65.07
60920;BME280;59039;52.108;19.942;2023-07-08T02:34:23;101201.11;;;15.70;66.12
60920;BME280;59039;52.108;19.942;2023-07-08T02:36:48;101201.93;;;15.69;66.44
60920;BME280;59039;52.108;19.942;2023-07-08T02:39:14;101201.25;;;15.69;65.23
60920;BME280;59039;52.108;19.942;2023-07-08T02:41:39;101207.89;;;15.68;64.69
60920;BME280;59039;52.108;19.942;2023-07-08T02:44:04;101212.99;;;15.66;64.50
60920;BME280;59039;52.108;19.942;2023-07-08T02:46:29;101210.76;;;15.63;65.05
60920;BME280;59039;52.108;19.942;2023-07-08T02:48:54;101207.85;;;15.61;65.37
60920;BME280;59039;52.108;19.942;2023-07-08T02:51:20;101204.55;;;15.58;65.88
60920;BME280;59039;52.108;19.942;2023-07-08T02:53:47;101203.79;;;15.55;66.74
60920;BME280;59039;52.108;19.942;2023-07-08T02:56:12;101204.16;;;15.53;67.19
60920;BME280;59039;52.108;19.942;2023-07-08T02:58:37;101201.27;;;15.53;66.05
60920;BME280;59039;52.108;19.942;2023-07-08T03:01:02;101203.44;;;15.53;65.92
60920;BME280;59039;52.108;19.942;2023-07-08T03:03:28;101207.73;;;15.54;66.53
60920;BME280;59039;52.108;19.942;2023-07-08T03:05:58;101205.60;;;15.55;66.88
60920;BME280;59039;52.108;19.942;2023-07-08T03:08:24;101204.41;;;15.56;66.28
60920;BME280;59039;52.108;19.942;2023-07-08T03:10:55;101204.63;;;15.56;65.72
60920;BME280;59039;52.108;19.942;2023-07-08T03:13:21;101210.86;;;15.56;65.69
60920;BME280;59039;52.108;19.942;2023-07-08T03:15:46;101218.10;;;15.55;65.36
60920;BME280;59039;52.108;19.942;2023-07-08T03:18:11;101217.59;;;15.53;66.17
60920;BME280;59039;52.108;19.942;2023-07-08T03:20:39;101213.65;;;15.52;65.98
60920;BME280;59039;52.108;19.942;2023-07-08T03:23:05;101216.43;;;15.52;66.23
60920;BME280;59039;52.108;19.942;2023-07-08T03:25:30;101215.33;;;15.52;66.50
60920;BME280;59039;52.108;19.942;2023-07-08T03:27:55;101216.52;;;15.53;66.00
60920;BME280;59039;52.108;19.942;2023-07-08T03:30:20;101221.83;;;15.52;65.84
60920;BME280;59039;52.108;19.942;2023-07-08T03:32:45;101225.91;;;15.53;65.88
60920;BME280;59039;52.108;19.942;2023-07-08T03:35:11;101228.06;;;15.55;65.84
60920;BME280;59039;52.108;19.942;2023-07-08T03:37:36;101228.49;;;15.57;65.97
60920;BME280;59039;52.108;19.942;2023-07-08T03:40:01;101232.77;;;15.58;65.98
60920;BME280;59039;52.108;19.942;2023-07-08T03:42:26;101229.26;;;15.58;65.98
60920;BME280;59039;52.108;19.942;2023-07-08T03:44:51;101231.52;;;15.61;65.91
60920;BME280;59039;52.108;19.942;2023-07-08T03:47:17;101233.55;;;15.60;65.92
60920;BME280;59039;52.108;19.942;2023-07-08T03:49:42;101232.02;;;15.61;66.26
60920;BME280;59039;52.108;19.942;2023-07-08T03:52:14;101229.51;;;15.64;66.32
60920;BME280;59039;52.108;19.942;2023-07-08T03:54:40;101232.93;;;15.68;66.47
60920;BME280;59039;52.108;19.942;2023-07-08T03:57:06;101229.47;;;15.73;66.60
60920;BME280;59039;52.108;19.942;2023-07-08T03:59:31;101227.19;;;15.80;66.60
60920;BME280;59039;52.108;19.942;2023-07-08T04:01:56;101229.49;;;15.88;66.68
60920;BME280;59039;52.108;19.942;2023-07-08T04:04:21;101229.13;;;15.98;66.79
60920;BME280;59039;52.108;19.942;2023-07-08T04:06:46;101228.88;;;16.10;66.98
60920;BME280;59039;52.108;19.942;2023-07-08T04:09:12;101228.55;;;16.24;66.93
60920;BME280;59039;52.108;19.942;2023-07-08T04:11:37;101229.70;;;16.42;67.29
60920;BME280;59039;52.108;19.942;2023-07-08T04:14:03;101224.82;;;16.60;67.02
60920;BME280;59039;52.108;19.942;2023-07-08T04:16:31;101218.17;;;16.79;66.98
60920;BME280;59039;52.108;19.942;2023-07-08T04:18:57;101219.48;;;16.98;66.85
60920;BME280;59039;52.108;19.942;2023-07-08T04:21:23;101213.50;;;17.19;66.43
60920;BME280;59039;52.108;19.942;2023-07-08T04:23:49;101211.80;;;17.39;65.94
60920;BME280;59039;52.108;19.942;2023-07-08T04:26:14;101212.36;;;17.60;65.53
60920;BME280;59039;52.108;19.942;2023-07-08T04:28:41;101212.34;;;17.81;65.07
60920;BME280;59039;52.108;19.942;2023-07-08T04:31:06;101214.89;;;18.01;64.66
60920;BME280;59039;52.108;19.942;2023-07-08T04:33:31;101218.84;;;18.20;64.13
60920;BME280;59039;52.108;19.942;2023-07-08T04:35:57;101218.20;;;18.37;63.67
60920;BME280;59039;52.108;19.942;2023-07-08T04:38:23;101211.36;;;18.54;63.47
60920;BME280;59039;52.108;19.942;2023-07-08T04:40:50;101207.95;;;18.72;62.80
60920;BME280;59039;52.108;19.942;2023-07-08T04:43:15;101204.83;;;18.88;61.97
60920;BME280;59039;52.108;19.942;2023-07-08T04:45:43;101202.36;;;19.04;61.56
60920;BME280;59039;52.108;19.942;2023-07-08T04:48:16;101201.45;;;19.18;60.92
60920;BME280;59039;52.108;19.942;2023-07-08T04:50:43;101202.29;;;19.33;60.57
60920;BME280;59039;52.108;19.942;2023-07-08T04:53:10;101202.50;;;19.48;59.63
60920;BME280;59039;52.108;19.942;2023-07-08T04:55:38;101203.17;;;19.60;59.82
60920;BME280;59039;52.108;19.942;2023-07-08T04:58:04;101201.48;;;19.72;59.44
60920;BME280;59039;52.108;19.942;2023-07-08T05:00:30;101205.91;;;19.86;59.28
60920;BME280;59039;52.108;19.942;2023-07-08T05:02:55;101202.48;;;20.00;58.84
60920;BME280;59039;52.108;19.942;2023-07-08T05:05:20;101201.45;;;20.12;58.50
60920;BME280;59039;52.108;19.942;2023-07-08T05:07:45;101200.20;;;20.26;58.31
60920;BME280;59039;52.108;19.942;2023-07-08T05:10:11;101202.60;;;20.40;57.99
60920;BME280;59039;52.108;19.942;2023-07-08T05:12:36;101199.75;;;20.54;57.52
60920;BME280;59039;52.108;19.942;2023-07-08T05:15:01;101201.00;;;20.67;57.28
60920;BME280;59039;52.108;19.942;2023-07-08T05:17:27;101198.17;;;20.78;57.04
60920;BME280;59039;52.108;19.942;2023-07-08T05:19:52;101197.52;;;20.89;56.01
60920;BME280;59039;52.108;19.942;2023-07-08T05:22:17;101198.05;;;21.00;56.50
60920;BME280;59039;52.108;19.942;2023-07-08T05:24:43;101199.64;;;21.12;56.17
60920;BME280;59039;52.108;19.942;2023-07-08T05:27:08;101193.87;;;21.23;56.09
60920;BME280;59039;52.108;19.942;2023-07-08T05:29:33;101194.98;;;21.37;55.99
60920;BME280;59039;52.108;19.942;2023-07-08T05:31:58;101194.33;;;21.50;54.90
60920;BME280;59039;52.108;19.942;2023-07-08T05:34:23;101199.00;;;21.63;55.28
60920;BME280;59039;52.108;19.942;2023-07-08T05:36:49;101200.23;;;21.73;54.68
60920;BME280;59039;52.108;19.942;2023-07-08T05:39:14;101195.98;;;21.85;54.42
60920;BME280;59039;52.108;19.942;2023-07-08T05:41:39;101192.67;;;21.95;54.20
60920;BME280;59039;52.108;19.942;2023-07-08T05:44:04;101190.09;;;22.04;54.28
60920;BME280;59039;52.108;19.942;2023-07-08T05:46:30;101187.45;;;22.15;54.28
60920;BME280;59039;52.108;19.942;2023-07-08T05:48:55;101186.77;;;22.27;54.15
60920;BME280;59039;52.108;19.942;2023-07-08T05:51:20;101182.66;;;22.38;53.61
60920;BME280;59039;52.108;19.942;2023-07-08T05:53:46;101179.89;;;22.49;52.56
60920;BME280;59039;52.108;19.942;2023-07-08T05:56:11;101180.59;;;22.58;51.87
60920;BME280;59039;52.108;19.942;2023-07-08T05:58:36;101172.34;;;22.68;51.60
60920;BME280;59039;52.108;19.942;2023-07-08T06:01:02;101166.09;;;22.77;51.20
60920;BME280;59039;52.108;19.942;2023-07-08T06:03:27;101165.48;;;22.87;51.64
60920;BME280;59039;52.108;19.942;2023-07-08T06:05:53;101168.70;;;22.98;51.96
60920;BME280;59039;52.108;19.942;2023-07-08T06:08:18;101170.37;;;23.08;52.18
60920;BME280;59039;52.108;19.942;2023-07-08T06:10:44;101169.99;;;23.19;51.47
60920;BME280;59039;52.108;19.942;2023-07-08T06:13:11;101168.11;;;23.28;51.53
60920;BME280;59039;52.108;19.942;2023-07-08T06:15:36;101165.67;;;23.37;51.02
60920;BME280;59039;52.108;19.942;2023-07-08T06:18:01;101169.23;;;23.48;51.07
60920;BME280;59039;52.108;19.942;2023-07-08T06:20:26;101170.13;;;23.59;50.20
60920;BME280;59039;52.108;19.942;2023-07-08T06:22:52;101167.61;;;23.70;50.26
60920;BME280;59039;52.108;19.942;2023-07-08T06:25:17;101164.33;;;23.81;49.33
60920;BME280;59039;52.108;19.942;2023-07-08T06:27:42;101163.60;;;23.94;48.82
60920;BME280;59039;52.108;19.942;2023-07-08T06:30:08;101162.81;;;24.07;48.81
60920;BME280;59039;52.108;19.942;2023-07-08T06:32:33;101161.33;;;24.21;48.58
60920;BME280;59039;52.108;19.942;2023-07-08T06:34:58;101159.88;;;24.34;48.32
60920;BME280;59039;52.108;19.942;2023-07-08T06:37:23;101156.23;;;24.46;46.72
60920;BME280;59039;52.108;19.942;2023-07-08T06:39:49;101155.89;;;24.60;47.26
60920;BME280;59039;52.108;19.942;2023-07-08T06:42:14;101151.98;;;24.75;46.79
60920;BME280;59039;52.108;19.942;2023-07-08T06:44:39;101150.17;;;24.89;47.03
60920;BME280;59039;52.108;19.942;2023-07-08T06:47:05;101154.70;;;25.05;45.76
60920;BME280;59039;52.108;19.942;2023-07-08T06:49:30;101157.25;;;25.21;45.37
60920;BME280;59039;52.108;19.942;2023-07-08T06:51:55;101156.02;;;25.36;44.91
60920;BME280;59039;52.108;19.942;2023-07-08T06:54:20;101158.63;;;25.52;45.28
60920;BME280;59039;52.108;19.942;2023-07-08T06:56:45;101156.87;;;25.67;43.99
60920;BME280;59039;52.108;19.942;2023-07-08T06:59:11;101157.68;;;25.81;43.69
60920;BME280;59039;52.108;19.942;2023-07-08T07:01:36;101159.42;;;25.98;43.57
60920;BME280;59039;52.108;19.942;2023-07-08T07:04:01;101159.16;;;26.14;44.01
60920;BME280;59039;52.108;19.942;2023-07-08T07:06:26;101154.85;;;26.29;43.03
60920;BME280;59039;52.108;19.942;2023-07-08T07:08:52;101159.80;;;26.45;43.01
60920;BME280;59039;52.108;19.942;2023-07-08T07:11:17;101157.54;;;26.59;42.15
60920;BME280;59039;52.108;19.942;2023-07-08T07:13:42;101157.10;;;26.74;42.05
60920;BME280;59039;52.108;19.942;2023-07-08T07:16:08;101155.91;;;26.91;42.80
60920;BME280;59039;52.108;19.942;2023-07-08T07:18:33;101154.75;;;27.05;42.01
60920;BME280;59039;52.108;19.942;2023-07-08T07:20:58;101154.64;;;27.20;41.52
60920;BME280;59039;52.108;19.942;2023-07-08T07:23:24;101151.35;;;27.33;38.96
60920;BME280;59039;52.108;19.942;2023-07-08T07:25:49;101147.63;;;27.49;38.69
60920;BME280;59039;52.108;19.942;2023-07-08T07:28:15;101147.34;;;27.66;39.16
60920;BME280;59039;52.108;19.942;2023-07-08T07:30:40;101147.23;;;27.81;39.78
60920;BME280;59039;52.108;19.942;2023-07-08T07:33:05;101146.77;;;27.96;37.92
60920;BME280;59039;52.108;19.942;2023-07-08T07:35:31;101144.20;;;28.08;36.60
60920;BME280;59039;52.108;19.942;2023-07-08T07:37:56;101150.63;;;28.22;36.71
60920;BME280;59039;52.108;19.942;2023-07-08T07:40:21;101147.97;;;28.35;36.08
60920;BME280;59039;52.108;19.942;2023-07-08T07:42:46;101147.06;;;28.47;34.74
60920;BME280;59039;52.108;19.942;2023-07-08T07:45:12;101149.14;;;28.61;35.68
60920;BME280;59039;52.108;19.942;2023-07-08T07:47:38;101145.55;;;28.73;34.00
60920;BME280;59039;52.108;19.942;2023-07-08T07:50:05;101143.56;;;28.88;34.88
60920;BME280;59039;52.108;19.942;2023-07-08T07:52:30;101144.29;;;29.00;33.86
60920;BME280;59039;52.108;19.942;2023-07-08T07:54:56;101141.52;;;29.13;33.11
60920;BME280;59039;52.108;19.942;2023-07-08T07:57:22;101142.10;;;29.24;32.81
60920;BME280;59039;52.108;19.942;2023-07-08T07:59:48;101144.08;;;29.36;31.71
60920;BME280;59039;52.108;19.942;2023-07-08T08:02:15;101150.11;;;29.49;32.09
60920;BME280;59039;52.108;19.942;2023-07-08T08:04:40;101150.81;;;29.58;32.01
60920;BME280;59039;52.108;19.942;2023-07-08T08:07:06;101149.79;;;29.66;31.84
60920;BME280;59039;52.108;19.942;2023-07-08T08:09:31;101152.75;;;29.75;31.24
60920;BME280;59039;52.108;19.942;2023-07-08T08:11:56;101149.31;;;29.84;31.03
60920;BME280;59039;52.108;19.942;2023-07-08T08:14:22;101145.72;;;29.96;29.82
60920;BME280;59039;52.108;19.942;2023-07-08T08:16:47;101143.13;;;30.15;28.86
60920;BME280;59039;52.108;19.942;2023-07-08T08:19:12;101146.82;;;30.33;29.01
60920;BME280;59039;52.108;19.942;2023-07-08T08:21:37;101148.48;;;30.46;29.54
60920;BME280;59039;52.108;19.942;2023-07-08T08:24:03;101150.91;;;30.56;28.19
60920;BME280;59039;52.108;19.942;2023-07-08T08:26:28;101151.61;;;30.63;28.44
60920;BME280;59039;52.108;19.942;2023-07-08T08:28:55;101153.17;;;30.68;28.84
60920;BME280;59039;52.108;19.942;2023-07-08T08:31:20;101150.75;;;30.66;29.59
60920;BME280;59039;52.108;19.942;2023-07-08T08:33:45;101147.35;;;30.60;29.16
60920;BME280;59039;52.108;19.942;2023-07-08T08:36:11;101145.67;;;30.51;29.20
60920;BME280;59039;52.108;19.942;2023-07-08T08:38:36;101141.49;;;30.40;28.82
60920;BME280;59039;52.108;19.942;2023-07-08T08:41:12;101138.96;;;30.26;28.43
60920;BME280;59039;52.108;19.942;2023-07-08T08:43:39;101143.48;;;30.08;28.59
60920;BME280;59039;52.108;19.942;2023-07-08T08:46:10;101147.36;;;29.91;29.09
60920;BME280;59039;52.108;19.942;2023-07-08T08:51:34;101137.49;;;29.59;29.61
60920;BME280;59039;52.108;19.942;2023-07-08T08:54:00;101139.13;;;29.45;29.87
60920;BME280;59039;52.108;19.942;2023-07-08T08:56:31;101141.55;;;29.31;29.87
60920;BME280;59039;52.108;19.942;2023-07-08T09:01:41;101140.63;;;29.05;30.04
60920;BME280;59039;52.108;19.942;2023-07-08T09:04:13;101142.71;;;28.95;30.16
60920;BME280;59039;52.108;19.942;2023-07-08T09:06:41;101150.17;;;28.84;30.33
60920;BME280;59039;52.108;19.942;2023-07-08T09:09:15;101148.07;;;28.73;30.53
60920;BME280;59039;52.108;19.942;2023-07-08T09:11:45;101150.44;;;28.62;31.00
60920;BME280;59039;52.108;19.942;2023-07-08T09:14:18;101150.52;;;28.52;30.82
60920;BME280;59039;52.108;19.942;2023-07-08T09:16:52;101150.50;;;28.42;31.04
60920;BME280;59039;52.108;19.942;2023-07-08T09:19:32;101149.32;;;28.31;30.74
60920;BME280;59039;52.108;19.942;2023-07-08T09:25:38;101139.75;;;28.12;31.06
60920;BME280;59039;52.108;19.942;2023-07-08T09:28:07;101130.74;;;28.02;31.20
60920;BME280;59039;52.108;19.942;2023-07-08T09:30:33;101130.71;;;27.97;30.97
60920;BME280;59039;52.108;19.942;2023-07-08T09:33:02;101129.80;;;27.92;30.99
60920;BME280;59039;52.108;19.942;2023-07-08T09:35:37;101135.27;;;27.89;30.81
60920;BME280;59039;52.108;19.942;2023-07-08T09:38:15;101134.63;;;27.84;31.02
60920;BME280;59039;52.108;19.942;2023-07-08T09:40:46;101132.41;;;27.81;31.29
60920;BME280;59039;52.108;19.942;2023-07-08T09:43:17;101124.59;;;27.77;31.59
60920;BME280;59039;52.108;19.942;2023-07-08T09:45:47;101122.43;;;27.76;31.43
60920;BME280;59039;52.108;19.942;2023-07-08T09:48:36;101120.23;;;27.75;31.82
60920;BME280;59039;52.108;19.942;2023-07-08T09:51:03;101117.01;;;27.73;32.19
60920;BME280;59039;52.108;19.942;2023-07-08T09:53:29;101118.89;;;27.71;32.15
60920;BME280;59039;52.108;19.942;2023-07-08T09:55:58;101118.05;;;27.72;31.65
60920;BME280;59039;52.108;19.942;2023-07-08T09:58:29;101116.77;;;27.72;31.85
60920;BME280;59039;52.108;19.942;2023-07-08T10:00:57;101114.48;;;27.72;31.94
60920;BME280;59039;52.108;19.942;2023-07-08T10:03:29;101112.16;;;27.73;31.91
60920;BME280;59039;52.108;19.942;2023-07-08T10:05:57;101106.54;;;27.74;31.69
60920;BME280;59039;52.108;19.942;2023-07-08T10:08:25;101104.31;;;27.75;31.57
60920;BME280;59039;52.108;19.942;2023-07-08T10:11:12;101108.25;;;27.76;31.96
60920;BME280;59039;52.108;19.942;2023-07-08T10:13:46;101103.98;;;27.77;31.89
60920;BME280;59039;52.108;19.942;2023-07-08T10:16:27;101102.20;;;27.79;31.64
60920;BME280;59039;52.108;19.942;2023-07-08T10:18:53;101095.42;;;27.80;31.37
60920;BME280;59039;52.108;19.942;2023-07-08T10:32:21;101092.70;;;27.81;30.76
60920;BME280;59039;52.108;19.942;2023-07-08T10:37:42;101086.77;;;27.78;31.43
60920;BME280;59039;52.108;19.942;2023-07-08T10:40:30;101089.01;;;27.78;30.88
60920;BME280;59039;52.108;19.942;2023-07-08T10:56:54;101071.92;;;27.65;30.67
60920;BME280;59039;52.108;19.942;2023-07-08T10:59:39;101067.34;;;27.61;30.88
60920;BME280;59039;52.108;19.942;2023-07-08T11:05:34;101064.10;;;27.49;31.48
60920;BME280;59039;52.108;19.942;2023-07-08T11:08:18;101067.68;;;27.46;31.69
60920;BME280;59039;52.108;19.942;2023-07-08T11:11:01;101069.20;;;27.46;31.94
60920;BME280;59039;52.108;19.942;2023-07-08T11:13:30;101065.74;;;27.47;31.89
60920;BME280;59039;52.108;19.942;2023-07-08T11:19:15;101054.01;;;27.49;31.32
60920;BME280;59039;52.108;19.942;2023-07-08T11:21:39;101056.86;;;27.50;31.59
60920;BME280;59039;52.108;19.942;2023-07-08T11:24:37;101057.45;;;27.52;31.65
60920;BME280;59039;52.108;19.942;2023-07-08T11:27:21;101052.23;;;27.52;31.47
60920;BME280;59039;52.108;19.942;2023-07-08T11:29:50;101050.84;;;27.53;32.09
60920;BME280;59039;52.108;19.942;2023-07-08T11:32:23;101052.52;;;27.54;32.07
60920;BME280;59039;52.108;19.942;2023-07-08T11:34:51;101047.21;;;27.55;31.62
60920;BME280;59039;52.108;19.942;2023-07-08T11:37:19;101043.88;;;27.54;31.51
60920;BME280;59039;52.108;19.942;2023-07-08T11:39:45;101047.36;;;27.56;31.35
60920;BME280;59039;52.108;19.942;2023-07-08T11:42:17;101046.83;;;27.57;31.70
60920;BME280;59039;52.108;19.942;2023-07-08T11:44:50;101043.71;;;27.58;31.58
60920;BME280;59039;52.108;19.942;2023-07-08T11:47:19;101045.02;;;27.59;31.31
60920;BME280;59039;52.108;19.942;2023-07-08T11:49:47;101035.83;;;27.60;31.42
60920;BME280;59039;52.108;19.942;2023-07-08T11:52:17;101026.61;;;27.61;31.25
60920;BME280;59039;52.108;19.942;2023-07-08T11:54:46;101027.88;;;27.62;30.69
60920;BME280;59039;52.108;19.942;2023-07-08T11:57:17;101024.93;;;27.63;30.89
60920;BME280;59039;52.108;19.942;2023-07-08T11:59:43;101025.17;;;27.65;30.84
60920;BME280;59039;52.108;19.942;2023-07-08T12:02:17;101020.15;;;27.68;31.02
60920;BME280;59039;52.108;19.942;2023-07-08T12:05:11;101024.11;;;27.72;31.08
60920;BME280;59039;52.108;19.942;2023-07-08T12:07:41;101021.52;;;27.74;30.76
60920;BME280;59039;52.108;19.942;2023-07-08T12:12:39;101017.83;;;27.80;31.14
60920;BME280;59039;52.108;19.942;2023-07-08T12:15:14;101011.55;;;27.82;31.05
60920;BME280;59039;52.108;19.942;2023-07-08T12:17:41;101006.89;;;27.83;30.62
60920;BME280;59039;52.108;19.942;2023-07-08T12:20:17;101010.09;;;27.84;30.70
60920;BME280;59039;52.108;19.942;2023-07-08T12:22:42;101012.35;;;27.85;30.83
60920;BME280;59039;52.108;19.942;2023-07-08T12:25:13;101013.83;;;27.86;31.29
60920;BME280;59039;52.108;19.942;2023-07-08T12:27:38;101012.77;;;27.87;30.76
60920;BME280;59039;52.108;19.942;2023-07-08T12:30:04;101011.70;;;27.87;30.76
60920;BME280;59039;52.108;19.942;2023-07-08T12:32:29;101011.66;;;27.87;30.03
60920;BME280;59039;52.108;19.942;2023-07-08T12:34:55;101007.34;;;27.86;30.04
60920;BME280;59039;52.108;19.942;2023-07-08T12:37:21;101008.24;;;27.84;29.66
60920;BME280;59039;52.108;19.942;2023-07-08T12:40:09;101003.67;;;27.82;29.89
60920;BME280;59039;52.108;19.942;2023-07-08T12:42:35;101000.20;;;27.82;29.77
60920;BME280;59039;52.108;19.942;2023-07-08T12:45:00;100993.55;;;27.82;30.48
60920;BME280;59039;52.108;19.942;2023-07-08T12:47:25;100992.89;;;27.82;30.75
60920;BME280;59039;52.108;19.942;2023-07-08T12:49:51;100983.69;;;27.83;30.76
60920;BME280;59039;52.108;19.942;2023-07-08T12:52:21;100983.80;;;27.83;30.48
60920;BME280;59039;52.108;19.942;2023-07-08T12:54:46;100989.13;;;27.84;30.04
60920;BME280;59039;52.108;19.942;2023-07-08T12:57:12;100990.52;;;27.83;30.37
60920;BME280;59039;52.108;19.942;2023-07-08T12:59:38;100986.35;;;27.82;30.73
60920;BME280;59039;52.108;19.942;2023-07-08T13:02:07;100980.64;;;27.81;30.55
60920;BME280;59039;52.108;19.942;2023-07-08T13:04:35;100979.48;;;27.79;30.61
60920;BME280;59039;52.108;19.942;2023-07-08T13:07:02;100980.56;;;27.77;30.53
60920;BME280;59039;52.108;19.942;2023-07-08T13:09:36;100976.69;;;27.75;30.24
60920;BME280;59039;52.108;19.942;2023-07-08T13:12:05;100974.16;;;27.75;30.49
60920;BME280;59039;52.108;19.942;2023-07-08T13:14:36;100967.47;;;27.75;30.54
60920;BME280;59039;52.108;19.942;2023-07-08T13:17:02;100965.31;;;27.76;29.94
60920;BME280;59039;52.108;19.942;2023-07-08T13:19:28;100964.47;;;27.76;29.63
60920;BME280;59039;52.108;19.942;2023-07-08T13:21:53;100965.13;;;27.78;30.81
60920;BME280;59039;52.108;19.942;2023-07-08T13:24:21;100966.32;;;27.80;30.62
60920;BME280;59039;52.108;19.942;2023-07-08T13:26:48;100968.25;;;27.81;30.58
60920;BME280;59039;52.108;19.942;2023-07-08T13:29:15;100965.98;;;27.83;30.61